sensor_id;sensor_type;location;lat;lon;timestamp;P1;durP1;ratioP1;P2;durP2;ratioP2
73515;SDS011;61763;51.416;5.442;2023-02-19T00:01:21;30.85;;;14.25;;
73515;SDS011;61763;51.416;5.442;2023-02-19T00:03:52;33.85;;;11.95;;
73515;SDS011;61763;51.416;5.442;2023-02-19T00:06:20;30.63;;;11.55;;
73515;SDS011;61763;51.416;5.442;2023-02-19T00:08:47;31.30;;;14.38;;
73515;SDS011;61763;51.416;5.442;2023-02-19T00:11:14;30.98;;;12.95;;
73515;SDS011;61763;51.416;5.442;2023-02-19T00:13:42;31.85;;;15.13;;
73515;SDS011;61763;51.416;5.442;2023-02-19T00:16:13;26.40;;;11.32;;
73515;SDS011;61763;51.416;5.442;2023-02-19T00:18:39;30.20;;;12.55;;
73515;SDS011;61763;51.416;5.442;2023-02-19T00:21:05;32.60;;;14.45;;
73515;SDS011;61763;51.416;5.442;2023-02-19T00:23:31;28.23;;;11.60;;
73515;SDS011;61763;51.416;5.442;2023-02-19T00:25:56;27.77;;;11.50;;
73515;SDS011;61763;51.416;5.442;2023-02-19T00:28:25;29.42;;;12.98;;
73515;SDS011;61763;51.416;5.442;2023-02-19T00:30:50;28.88;;;10.65;;
73515;SDS011;61763;51.416;5.442;2023-02-19T00:33:17;25.20;;;12.07;;
73515;SDS011;61763;51.416;5.442;2023-02-19T00:35:42;33.03;;;11.13;;
73515;SDS011;61763;51.416;5.442;2023-02-19T00:38:09;29.52;;;9.57;;
73515;SDS011;61763;51.416;5.442;2023-02-19T00:43:02;23.25;;;8.52;;
73515;SDS011;61763;51.416;5.442;2023-02-19T00:45:27;20.13;;;8.63;;
73515;SDS011;61763;51.416;5.442;2023-02-19T00:47:52;21.85;;;8.65;;
73515;SDS011;61763;51.416;5.442;2023-02-19T00:50:18;18.95;;;7.38;;
73515;SDS011;61763;51.416;5.442;2023-02-19T00:52:43;16.88;;;6.65;;
73515;SDS011;61763;51.416;5.442;2023-02-19T00:55:08;14.98;;;6.88;;
73515;SDS011;61763;51.416;5.442;2023-02-19T00:57:35;20.58;;;6.60;;
73515;SDS011;61763;51.416;5.442;2023-02-19T01:00:00;19.58;;;7.43;;
73515;SDS011;61763;51.416;5.442;2023-02-19T01:02:26;15.48;;;5.97;;
73515;SDS011;61763;51.416;5.442;2023-02-19T01:04:51;19.98;;;6.78;;
73515;SDS011;61763;51.416;5.442;2023-02-19T01:07:17;16.58;;;6.90;;
73515;SDS011;61763;51.416;5.442;2023-02-19T01:09:44;18.08;;;6.60;;
73515;SDS011;61763;51.416;5.442;2023-02-19T01:12:09;16.80;;;6.20;;
73515;SDS011;61763;51.416;5.442;2023-02-19T01:14:36;16.65;;;6.45;;
73515;SDS011;61763;51.416;5.442;2023-02-19T01:17:01;12.95;;;4.75;;
73515;SDS011;61763;51.416;5.442;2023-02-19T01:19:27;21.05;;;6.72;;
73515;SDS011;61763;51.416;5.442;2023-02-19T01:21:53;18.15;;;6.30;;
73515;SDS011;61763;51.416;5.442;2023-02-19T01:24:20;12.88;;;5.43;;
73515;SDS011;61763;51.416;5.442;2023-02-19T01:26:45;15.27;;;5.63;;
73515;SDS011;61763;51.416;5.442;2023-02-19T01:29:12;16.08;;;6.15;;
73515;SDS011;61763;51.416;5.442;2023-02-19T01:31:38;11.68;;;5.07;;
73515;SDS011;61763;51.416;5.442;2023-02-19T01:34:03;10.70;;;4.72;;
73515;SDS011;61763;51.416;5.442;2023-02-19T01:36:30;16.10;;;5.47;;
73515;SDS011;61763;51.416;5.442;2023-02-19T01:38:59;15.93;;;6.07;;
73515;SDS011;61763;51.416;5.442;2023-02-19T01:41:27;14.10;;;5.05;;
73515;SDS011;61763;51.416;5.442;2023-02-19T01:44:01;15.07;;;5.53;;
73515;SDS011;61763;51.416;5.442;2023-02-19T01:46:37;16.10;;;4.90;;
73515;SDS011;61763;51.416;5.442;2023-02-19T01:49:05;15.02;;;4.50;;
73515;SDS011;61763;51.416;5.442;2023-02-19T01:51:35;8.23;;;4.18;;
73515;SDS011;61763;51.416;5.442;2023-02-19T01:54:04;13.52;;;4.88;;
73515;SDS011;61763;51.416;5.442;2023-02-19T01:56:31;9.32;;;4.22;;
73515;SDS011;61763;51.416;5.442;2023-02-19T01:58:59;10.90;;;4.45;;
73515;SDS011;61763;51.416;5.442;2023-02-19T02:01:26;9.65;;;3.78;;
73515;SDS011;61763;51.416;5.442;2023-02-19T02:03:51;16.17;;;5.50;;
73515;SDS011;61763;51.416;5.442;2023-02-19T02:09:09;11.75;;;3.78;;
73515;SDS011;61763;51.416;5.442;2023-02-19T02:11:53;11.88;;;4.05;;
73515;SDS011;61763;51.416;5.442;2023-02-19T02:14:20;15.52;;;4.38;;
73515;SDS011;61763;51.416;5.442;2023-02-19T02:17:08;12.07;;;3.70;;
73515;SDS011;61763;51.416;5.442;2023-02-19T02:20:00;9.57;;;3.53;;
73515;SDS011;61763;51.416;5.442;2023-02-19T02:22:28;14.73;;;3.63;;
73515;SDS011;61763;51.416;5.442;2023-02-19T02:30:27;9.10;;;4.10;;
73515;SDS011;61763;51.416;5.442;2023-02-19T02:33:16;16.92;;;4.70;;
73515;SDS011;61763;51.416;5.442;2023-02-19T02:35:50;14.48;;;4.53;;
73515;SDS011;61763;51.416;5.442;2023-02-19T02:38:24;14.55;;;4.30;;
73515;SDS011;61763;51.416;5.442;2023-02-19T02:40:53;11.23;;;4.75;;
73515;SDS011;61763;51.416;5.442;2023-02-19T02:43:20;10.60;;;3.15;;
73515;SDS011;61763;51.416;5.442;2023-02-19T02:45:45;8.55;;;4.10;;
73515;SDS011;61763;51.416;5.442;2023-02-19T02:48:16;11.75;;;3.60;;
73515;SDS011;61763;51.416;5.442;2023-02-19T02:53:17;12.00;;;3.73;;
73515;SDS011;61763;51.416;5.442;2023-02-19T02:56:05;14.00;;;4.00;;
73515;SDS011;61763;51.416;5.442;2023-02-19T02:58:32;14.35;;;4.15;;
73515;SDS011;61763;51.416;5.442;2023-02-19T03:01:00;14.18;;;3.75;;
73515;SDS011;61763;51.416;5.442;2023-02-19T03:03:48;11.57;;;2.70;;
73515;SDS011;61763;51.416;5.442;2023-02-19T03:06:19;12.45;;;3.00;;
73515;SDS011;61763;51.416;5.442;2023-02-19T03:08:50;12.32;;;4.28;;
73515;SDS011;61763;51.416;5.442;2023-02-19T03:11:40;13.10;;;4.15;;
73515;SDS011;61763;51.416;5.442;2023-02-19T03:14:33;18.02;;;3.85;;
73515;SDS011;61763;51.416;5.442;2023-02-19T03:20:49;11.38;;;2.92;;
73515;SDS011;61763;51.416;5.442;2023-02-19T03:23:17;14.05;;;3.90;;
73515;SDS011;61763;51.416;5.442;2023-02-19T03:26:09;17.17;;;4.15;;
73515;SDS011;61763;51.416;5.442;2023-02-19T03:28:35;12.05;;;4.28;;
73515;SDS011;61763;51.416;5.442;2023-02-19T03:31:23;14.32;;;3.05;;
73515;SDS011;61763;51.416;5.442;2023-02-19T03:33:55;12.65;;;3.38;;
73515;SDS011;61763;51.416;5.442;2023-02-19T03:36:23;8.25;;;3.10;;
73515;SDS011;61763;51.416;5.442;2023-02-19T03:39:04;13.50;;;3.80;;
73515;SDS011;61763;51.416;5.442;2023-02-19T03:41:36;14.55;;;3.65;;
73515;SDS011;61763;51.416;5.442;2023-02-19T03:44:17;13.52;;;2.83;;
73515;SDS011;61763;51.416;5.442;2023-02-19T03:49:12;14.52;;;2.97;;
73515;SDS011;61763;51.416;5.442;2023-02-19T03:51:49;13.20;;;2.20;;
73515;SDS011;61763;51.416;5.442;2023-02-19T03:54:25;19.77;;;2.97;;
73515;SDS011;61763;51.416;5.442;2023-02-19T03:59:52;10.60;;;1.90;;
73515;SDS011;61763;51.416;5.442;2023-02-19T04:02:28;13.93;;;2.20;;
73515;SDS011;61763;51.416;5.442;2023-02-19T04:07:33;9.82;;;3.10;;
73515;SDS011;61763;51.416;5.442;2023-02-19T04:10:03;7.28;;;1.85;;
73515;SDS011;61763;51.416;5.442;2023-02-19T04:12:31;12.55;;;2.00;;
73515;SDS011;61763;51.416;5.442;2023-02-19T04:15:05;8.65;;;1.63;;
73515;SDS011;61763;51.416;5.442;2023-02-19T04:17:56;12.75;;;2.17;;
73515;SDS011;61763;51.416;5.442;2023-02-19T04:20:37;8.82;;;2.05;;
73515;SDS011;61763;51.416;5.442;2023-02-19T04:23:06;11.43;;;2.13;;
73515;SDS011;61763;51.416;5.442;2023-02-19T04:25:31;10.90;;;1.15;;
73515;SDS011;61763;51.416;5.442;2023-02-19T04:27:59;12.85;;;1.30;;
73515;SDS011;61763;51.416;5.442;2023-02-19T04:30:26;7.03;;;1.63;;
73515;SDS011;61763;51.416;5.442;2023-02-19T04:32:51;6.93;;;1.00;;
73515;SDS011;61763;51.416;5.442;2023-02-19T04:35:17;8.43;;;1.85;;
73515;SDS011;61763;51.416;5.442;2023-02-19T04:37:42;9.27;;;1.83;;
73515;SDS011;61763;51.416;5.442;2023-02-19T04:40:08;10.00;;;2.08;;
73515;SDS011;61763;51.416;5.442;2023-02-19T04:42:34;16.02;;;2.33;;
73515;SDS011;61763;51.416;5.442;2023-02-19T04:44:59;10.43;;;1.83;;
73515;SDS011;61763;51.416;5.442;2023-02-19T04:47:25;8.90;;;1.50;;
73515;SDS011;61763;51.416;5.442;2023-02-19T04:49:50;10.02;;;1.40;;
73515;SDS011;61763;51.416;5.442;2023-02-19T04:52:15;12.90;;;1.75;;
73515;SDS011;61763;51.416;5.442;2023-02-19T04:54:42;15.02;;;2.17;;
73515;SDS011;61763;51.416;5.442;2023-02-19T04:57:07;13.95;;;1.58;;
73515;SDS011;61763;51.416;5.442;2023-02-19T04:59:33;7.95;;;1.90;;
73515;SDS011;61763;51.416;5.442;2023-02-19T05:01:58;8.63;;;1.65;;
73515;SDS011;61763;51.416;5.442;2023-02-19T05:04:24;9.68;;;1.83;;
73515;SDS011;61763;51.416;5.442;2023-02-19T05:06:49;11.25;;;1.13;;
73515;SDS011;61763;51.416;5.442;2023-02-19T05:09:14;13.23;;;2.03;;
73515;SDS011;61763;51.416;5.442;2023-02-19T05:11:40;10.45;;;2.10;;
73515;SDS011;61763;51.416;5.442;2023-02-19T05:14:07;9.57;;;2.33;;
73515;SDS011;61763;51.416;5.442;2023-02-19T05:16:32;13.70;;;1.50;;
73515;SDS011;61763;51.416;5.442;2023-02-19T05:18:58;15.63;;;2.22;;
73515;SDS011;61763;51.416;5.442;2023-02-19T05:21:24;10.77;;;2.08;;
73515;SDS011;61763;51.416;5.442;2023-02-19T05:23:49;11.15;;;2.50;;
73515;SDS011;61763;51.416;5.442;2023-02-19T05:26:16;15.07;;;2.42;;
73515;SDS011;61763;51.416;5.442;2023-02-19T05:28:44;13.60;;;2.92;;
73515;SDS011;61763;51.416;5.442;2023-02-19T05:31:11;9.23;;;1.63;;
73515;SDS011;61763;51.416;5.442;2023-02-19T05:33:36;12.63;;;1.73;;
73515;SDS011;61763;51.416;5.442;2023-02-19T05:36:06;16.48;;;2.17;;
73515;SDS011;61763;51.416;5.442;2023-02-19T05:38:33;17.52;;;1.98;;
73515;SDS011;61763;51.416;5.442;2023-02-19T05:43:54;8.05;;;1.50;;
73515;SDS011;61763;51.416;5.442;2023-02-19T05:46:22;14.45;;;2.65;;
73515;SDS011;61763;51.416;5.442;2023-02-19T05:48:50;10.75;;;1.65;;
73515;SDS011;61763;51.416;5.442;2023-02-19T05:51:17;18.52;;;2.58;;
73515;SDS011;61763;51.416;5.442;2023-02-19T05:53:45;9.65;;;1.60;;
73515;SDS011;61763;51.416;5.442;2023-02-19T05:58:55;11.77;;;1.83;;
73515;SDS011;61763;51.416;5.442;2023-02-19T06:01:21;8.18;;;2.03;;
73515;SDS011;61763;51.416;5.442;2023-02-19T06:03:49;14.65;;;2.58;;
73515;SDS011;61763;51.416;5.442;2023-02-19T06:06:16;13.80;;;1.80;;
73515;SDS011;61763;51.416;5.442;2023-02-19T06:08:42;8.50;;;2.00;;
73515;SDS011;61763;51.416;5.442;2023-02-19T06:11:08;13.82;;;2.25;;
73515;SDS011;61763;51.416;5.442;2023-02-19T06:13:33;10.05;;;1.77;;
73515;SDS011;61763;51.416;5.442;2023-02-19T06:16:02;7.97;;;1.58;;
73515;SDS011;61763;51.416;5.442;2023-02-19T06:18:28;10.48;;;1.85;;
73515;SDS011;61763;51.416;5.442;2023-02-19T06:20:54;9.13;;;1.33;;
73515;SDS011;61763;51.416;5.442;2023-02-19T06:23:28;13.18;;;1.83;;
73515;SDS011;61763;51.416;5.442;2023-02-19T06:25:54;14.57;;;1.58;;
73515;SDS011;61763;51.416;5.442;2023-02-19T06:28:20;11.95;;;0.95;;
73515;SDS011;61763;51.416;5.442;2023-02-19T06:30:45;15.30;;;2.15;;
73515;SDS011;61763;51.416;5.442;2023-02-19T06:33:10;13.98;;;1.30;;
73515;SDS011;61763;51.416;5.442;2023-02-19T06:35:35;11.50;;;1.67;;
73515;SDS011;61763;51.416;5.442;2023-02-19T06:38:01;15.20;;;2.28;;
73515;SDS011;61763;51.416;5.442;2023-02-19T06:40:27;16.20;;;2.17;;
73515;SDS011;61763;51.416;5.442;2023-02-19T06:42:53;11.75;;;1.23;;
73515;SDS011;61763;51.416;5.442;2023-02-19T06:45:18;9.23;;;1.65;;
73515;SDS011;61763;51.416;5.442;2023-02-19T06:47:44;10.65;;;1.33;;
73515;SDS011;61763;51.416;5.442;2023-02-19T06:50:09;10.77;;;1.40;;
73515;SDS011;61763;51.416;5.442;2023-02-19T06:52:34;6.30;;;0.82;;
73515;SDS011;61763;51.416;5.442;2023-02-19T06:55:01;8.52;;;1.52;;
73515;SDS011;61763;51.416;5.442;2023-02-19T06:57:27;8.77;;;1.75;;
73515;SDS011;61763;51.416;5.442;2023-02-19T06:59:52;9.93;;;1.52;;
73515;SDS011;61763;51.416;5.442;2023-02-19T07:02:17;14.55;;;1.50;;
73515;SDS011;61763;51.416;5.442;2023-02-19T07:04:43;9.52;;;1.00;;
73515;SDS011;61763;51.416;5.442;2023-02-19T07:07:12;6.43;;;0.90;;
73515;SDS011;61763;51.416;5.442;2023-02-19T07:09:38;12.35;;;1.52;;
73515;SDS011;61763;51.416;5.442;2023-02-19T07:12:03;6.57;;;1.75;;
73515;SDS011;61763;51.416;5.442;2023-02-19T07:14:29;7.72;;;2.60;;
73515;SDS011;61763;51.416;5.442;2023-02-19T07:16:54;7.13;;;1.55;;
73515;SDS011;61763;51.416;5.442;2023-02-19T07:19:20;13.57;;;1.70;;
73515;SDS011;61763;51.416;5.442;2023-02-19T07:21:46;10.80;;;1.63;;
73515;SDS011;61763;51.416;5.442;2023-02-19T07:24:12;6.90;;;0.90;;
73515;SDS011;61763;51.416;5.442;2023-02-19T07:26:37;9.68;;;1.75;;
73515;SDS011;61763;51.416;5.442;2023-02-19T07:29:03;10.82;;;1.27;;
73515;SDS011;61763;51.416;5.442;2023-02-19T07:31:28;9.20;;;2.65;;
73515;SDS011;61763;51.416;5.442;2023-02-19T07:33:54;9.45;;;2.55;;
73515;SDS011;61763;51.416;5.442;2023-02-19T07:36:21;10.60;;;2.15;;
73515;SDS011;61763;51.416;5.442;2023-02-19T07:38:57;8.20;;;2.38;;
73515;SDS011;61763;51.416;5.442;2023-02-19T07:41:24;12.30;;;2.60;;
73515;SDS011;61763;51.416;5.442;2023-02-19T07:43:50;8.77;;;2.20;;
73515;SDS011;61763;51.416;5.442;2023-02-19T07:46:16;9.77;;;2.13;;
73515;SDS011;61763;51.416;5.442;2023-02-19T07:48:41;7.93;;;2.25;;
73515;SDS011;61763;51.416;5.442;2023-02-19T07:51:12;8.00;;;1.80;;
73515;SDS011;61763;51.416;5.442;2023-02-19T07:53:42;10.18;;;2.83;;
73515;SDS011;61763;51.416;5.442;2023-02-19T07:56:11;13.02;;;2.10;;
73515;SDS011;61763;51.416;5.442;2023-02-19T07:58:37;6.00;;;1.65;;
73515;SDS011;61763;51.416;5.442;2023-02-19T08:01:07;11.32;;;2.13;;
73515;SDS011;61763;51.416;5.442;2023-02-19T08:03:43;11.13;;;3.13;;
73515;SDS011;61763;51.416;5.442;2023-02-19T08:06:10;9.80;;;2.40;;
73515;SDS011;61763;51.416;5.442;2023-02-19T08:08:37;13.13;;;2.80;;
73515;SDS011;61763;51.416;5.442;2023-02-19T08:11:03;9.50;;;3.20;;
73515;SDS011;61763;51.416;5.442;2023-02-19T08:13:49;9.73;;;2.35;;
73515;SDS011;61763;51.416;5.442;2023-02-19T08:16:16;8.50;;;2.13;;
73515;SDS011;61763;51.416;5.442;2023-02-19T08:18:43;15.15;;;3.55;;
73515;SDS011;61763;51.416;5.442;2023-02-19T08:21:11;9.60;;;2.95;;
73515;SDS011;61763;51.416;5.442;2023-02-19T08:23:37;11.57;;;2.80;;
73515;SDS011;61763;51.416;5.442;2023-02-19T08:26:03;9.93;;;2.78;;
73515;SDS011;61763;51.416;5.442;2023-02-19T08:28:29;9.10;;;2.80;;
73515;SDS011;61763;51.416;5.442;2023-02-19T08:31:02;8.55;;;2.38;;
73515;SDS011;61763;51.416;5.442;2023-02-19T08:33:29;8.60;;;2.58;;
73515;SDS011;61763;51.416;5.442;2023-02-19T08:35:55;8.52;;;2.10;;
73515;SDS011;61763;51.416;5.442;2023-02-19T08:38:21;9.32;;;2.15;;
73515;SDS011;61763;51.416;5.442;2023-02-19T08:40:46;12.05;;;3.28;;
73515;SDS011;61763;51.416;5.442;2023-02-19T08:43:13;8.70;;;1.75;;
73515;SDS011;61763;51.416;5.442;2023-02-19T08:45:41;8.43;;;3.03;;
73515;SDS011;61763;51.416;5.442;2023-02-19T08:48:08;12.80;;;4.10;;
73515;SDS011;61763;51.416;5.442;2023-02-19T08:50:37;11.82;;;3.35;;
73515;SDS011;61763;51.416;5.442;2023-02-19T08:53:03;10.93;;;3.22;;
73515;SDS011;61763;51.416;5.442;2023-02-19T08:55:30;10.20;;;2.50;;
73515;SDS011;61763;51.416;5.442;2023-02-19T08:57:56;10.75;;;2.40;;
73515;SDS011;61763;51.416;5.442;2023-02-19T09:00:22;10.40;;;2.65;;
73515;SDS011;61763;51.416;5.442;2023-02-19T09:02:48;12.90;;;3.40;;
73515;SDS011;61763;51.416;5.442;2023-02-19T09:05:14;11.77;;;3.25;;
73515;SDS011;61763;51.416;5.442;2023-02-19T09:07:40;9.63;;;2.70;;
73515;SDS011;61763;51.416;5.442;2023-02-19T09:10:06;9.13;;;1.77;;
73515;SDS011;61763;51.416;5.442;2023-02-19T09:12:32;11.57;;;1.63;;
73515;SDS011;61763;51.416;5.442;2023-02-19T09:14:58;7.57;;;2.42;;
73515;SDS011;61763;51.416;5.442;2023-02-19T09:17:24;14.55;;;3.67;;
73515;SDS011;61763;51.416;5.442;2023-02-19T09:19:50;7.72;;;2.60;;
73515;SDS011;61763;51.416;5.442;2023-02-19T09:22:15;8.68;;;2.22;;
73515;SDS011;61763;51.416;5.442;2023-02-19T09:24:41;8.25;;;3.25;;
73515;SDS011;61763;51.416;5.442;2023-02-19T09:27:07;9.13;;;3.22;;
73515;SDS011;61763;51.416;5.442;2023-02-19T09:29:32;7.95;;;2.50;;
73515;SDS011;61763;51.416;5.442;2023-02-19T09:31:58;5.78;;;2.25;;
73515;SDS011;61763;51.416;5.442;2023-02-19T09:34:26;6.50;;;1.90;;
73515;SDS011;61763;51.416;5.442;2023-02-19T09:36:52;8.48;;;2.72;;
73515;SDS011;61763;51.416;5.442;2023-02-19T09:39:18;10.98;;;2.88;;
73515;SDS011;61763;51.416;5.442;2023-02-19T09:41:45;7.93;;;3.17;;
73515;SDS011;61763;51.416;5.442;2023-02-19T09:46:54;7.47;;;2.95;;
73515;SDS011;61763;51.416;5.442;2023-02-19T09:49:26;9.27;;;3.20;;
73515;SDS011;61763;51.416;5.442;2023-02-19T09:54:23;6.13;;;2.70;;
73515;SDS011;61763;51.416;5.442;2023-02-19T09:56:51;8.02;;;2.38;;
73515;SDS011;61763;51.416;5.442;2023-02-19T09:59:23;8.95;;;2.63;;
73515;SDS011;61763;51.416;5.442;2023-02-19T10:01:54;7.47;;;2.17;;
73515;SDS011;61763;51.416;5.442;2023-02-19T10:04:26;8.85;;;2.63;;
73515;SDS011;61763;51.416;5.442;2023-02-19T10:06:51;5.68;;;2.42;;
73515;SDS011;61763;51.416;5.442;2023-02-19T10:09:21;5.63;;;1.88;;
73515;SDS011;61763;51.416;5.442;2023-02-19T10:11:50;9.77;;;2.60;;
73515;SDS011;61763;51.416;5.442;2023-02-19T10:14:25;12.32;;;3.55;;
73515;SDS011;61763;51.416;5.442;2023-02-19T10:16:56;8.68;;;3.90;;
73515;SDS011;61763;51.416;5.442;2023-02-19T10:19:25;11.07;;;3.83;;
73515;SDS011;61763;51.416;5.442;2023-02-19T10:21:50;8.52;;;4.68;;
73515;SDS011;61763;51.416;5.442;2023-02-19T10:24:19;9.48;;;4.72;;
73515;SDS011;61763;51.416;5.442;2023-02-19T10:26:48;10.45;;;4.80;;
73515;SDS011;61763;51.416;5.442;2023-02-19T10:29:14;9.82;;;2.88;;
73515;SDS011;61763;51.416;5.442;2023-02-19T10:31:39;7.80;;;3.25;;
73515;SDS011;61763;51.416;5.442;2023-02-19T10:34:04;10.85;;;3.95;;
73515;SDS011;61763;51.416;5.442;2023-02-19T10:36:42;8.80;;;3.03;;
73515;SDS011;61763;51.416;5.442;2023-02-19T10:42:13;7.68;;;3.45;;
73515;SDS011;61763;51.416;5.442;2023-02-19T10:47:13;10.15;;;3.88;;
73515;SDS011;61763;51.416;5.442;2023-02-19T10:49:41;8.57;;;3.70;;
73515;SDS011;61763;51.416;5.442;2023-02-19T10:52:20;6.82;;;2.97;;
73515;SDS011;61763;51.416;5.442;2023-02-19T10:57:44;10.35;;;2.78;;
73515;SDS011;61763;51.416;5.442;2023-02-19T11:02:38;8.63;;;4.30;;
73515;SDS011;61763;51.416;5.442;2023-02-19T11:05:06;10.25;;;3.85;;
73515;SDS011;61763;51.416;5.442;2023-02-19T11:08:02;6.32;;;2.67;;
73515;SDS011;61763;51.416;5.442;2023-02-19T11:10:30;7.57;;;3.20;;
73515;SDS011;61763;51.416;5.442;2023-02-19T11:13:03;5.95;;;3.20;;
73515;SDS011;61763;51.416;5.442;2023-02-19T11:15:37;5.03;;;1.70;;
73515;SDS011;61763;51.416;5.442;2023-02-19T11:20:32;7.97;;;2.50;;
73515;SDS011;61763;51.416;5.442;2023-02-19T11:23:04;5.10;;;1.77;;
73515;SDS011;61763;51.416;5.442;2023-02-19T11:25:43;6.72;;;2.08;;
73515;SDS011;61763;51.416;5.442;2023-02-19T11:30:43;4.57;;;1.73;;
73515;SDS011;61763;51.416;5.442;2023-02-19T11:35:46;5.90;;;2.85;;
73515;SDS011;61763;51.416;5.442;2023-02-19T11:38:14;6.80;;;2.30;;
73515;SDS011;61763;51.416;5.442;2023-02-19T11:49:39;3.63;;;1.40;;
73515;SDS011;61763;51.416;5.442;2023-02-19T11:54:55;2.80;;;1.30;;
73515;SDS011;61763;51.416;5.442;2023-02-19T12:00:30;2.97;;;1.73;;
73515;SDS011;61763;51.416;5.442;2023-02-19T12:05:55;2.38;;;0.70;;
73515;SDS011;61763;51.416;5.442;2023-02-19T12:17:31;4.50;;;1.10;;
73515;SDS011;61763;51.416;5.442;2023-02-19T12:22:51;2.90;;;1.23;;
73515;SDS011;61763;51.416;5.442;2023-02-19T12:28:17;3.17;;;0.95;;
73515;SDS011;61763;51.416;5.442;2023-02-19T12:38:47;4.78;;;0.90;;
73515;SDS011;61763;51.416;5.442;2023-02-19T12:44:18;3.55;;;1.08;;
73515;SDS011;61763;51.416;5.442;2023-02-19T12:46:52;5.63;;;1.58;;
73515;SDS011;61763;51.416;5.442;2023-02-19T12:49:27;2.92;;;1.63;;
73515;SDS011;61763;51.416;5.442;2023-02-19T12:52:10;5.72;;;2.10;;
73515;SDS011;61763;51.416;5.442;2023-02-19T12:54:43;6.70;;;2.35;;
73515;SDS011;61763;51.416;5.442;2023-02-19T12:57:16;6.45;;;1.77;;
73515;SDS011;61763;51.416;5.442;2023-02-19T12:59:49;5.22;;;1.75;;
73515;SDS011;61763;51.416;5.442;2023-02-19T13:10:21;2.53;;;1.35;;
73515;SDS011;61763;51.416;5.442;2023-02-19T13:12:51;3.25;;;0.63;;
73515;SDS011;61763;51.416;5.442;2023-02-19T13:18:09;2.65;;;0.95;;
73515;SDS011;61763;51.416;5.442;2023-02-19T13:20:41;4.35;;;1.30;;
73515;SDS011;61763;51.416;5.442;2023-02-19T13:37:49;4.38;;;1.55;;
73515;SDS011;61763;51.416;5.442;2023-02-19T13:42:53;5.95;;;2.53;;
73515;SDS011;61763;51.416;5.442;2023-02-19T13:51:37;2.58;;;0.65;;
73515;SDS011;61763;51.416;5.442;2023-02-19T14:14:42;3.15;;;0.20;;
73515;SDS011;61763;51.416;5.442;2023-02-19T14:20:38;1.13;;;0.52;;
73515;SDS011;61763;51.416;5.442;2023-02-19T14:22:59;2.15;;;0.40;;
73515;SDS011;61763;51.416;5.442;2023-02-19T14:31:09;1.87;;;0.50;;
73515;SDS011;61763;51.416;5.442;2023-02-19T14:33:45;2.70;;;0.50;;
73515;SDS011;61763;51.416;5.442;2023-02-19T14:39:16;2.00;;;0.35;;
73515;SDS011;61763;51.416;5.442;2023-02-19T14:41:57;2.55;;;0.50;;
73515;SDS011;61763;51.416;5.442;2023-02-19T14:44:26;2.67;;;0.50;;
73515;SDS011;61763;51.416;5.442;2023-02-19T14:47:07;2.03;;;0.73;;
73515;SDS011;61763;51.416;5.442;2023-02-19T14:57:48;3.97;;;0.45;;
73515;SDS011;61763;51.416;5.442;2023-02-19T15:00:33;2.20;;;0.75;;
73515;SDS011;61763;51.416;5.442;2023-02-19T15:03:01;1.58;;;0.90;;
73515;SDS011;61763;51.416;5.442;2023-02-19T15:05:32;1.85;;;0.73;;
73515;SDS011;61763;51.416;5.442;2023-02-19T15:08:11;1.73;;;0.43;;
73515;SDS011;61763;51.416;5.442;2023-02-19T15:13:07;1.80;;;0.65;;
73515;SDS011;61763;51.416;5.442;2023-02-19T15:15:42;1.33;;;0.45;;
73515;SDS011;61763;51.416;5.442;2023-02-19T15:18:17;2.42;;;1.05;;
73515;SDS011;61763;51.416;5.442;2023-02-19T15:20:45;2.42;;;0.82;;
73515;SDS011;61763;51.416;5.442;2023-02-19T15:23:13;2.38;;;0.70;;
73515;SDS011;61763;51.416;5.442;2023-02-19T15:25:46;3.15;;;0.80;;
73515;SDS011;61763;51.416;5.442;2023-02-19T15:30:48;3.60;;;1.30;;
73515;SDS011;61763;51.416;5.442;2023-02-19T15:33:22;2.47;;;1.02;;
73515;SDS011;61763;51.416;5.442;2023-02-19T15:35:51;3.17;;;0.60;;
73515;SDS011;61763;51.416;5.442;2023-02-19T15:38:20;2.67;;;1.10;;
73515;SDS011;61763;51.416;5.442;2023-02-19T15:40:46;1.60;;;1.10;;
73515;SDS011;61763;51.416;5.442;2023-02-19T15:45:54;1.70;;;0.82;;
73515;SDS011;61763;51.416;5.442;2023-02-19T15:48:24;1.20;;;0.65;;
73515;SDS011;61763;51.416;5.442;2023-02-19T15:51:00;1.65;;;0.80;;
73515;SDS011;61763;51.416;5.442;2023-02-19T15:53:32;2.67;;;0.20;;
73515;SDS011;61763;51.416;5.442;2023-02-19T15:56:04;1.02;;;0.20;;
73515;SDS011;61763;51.416;5.442;2023-02-19T16:01:23;4.32;;;0.30;;
73515;SDS011;61763;51.416;5.442;2023-02-19T16:03:51;1.90;;;0.63;;
73515;SDS011;61763;51.416;5.442;2023-02-19T16:06:21;2.15;;;0.30;;
73515;SDS011;61763;51.416;5.442;2023-02-19T16:13:48;1.10;;;0.63;;
73515;SDS011;61763;51.416;5.442;2023-02-19T16:16:20;3.72;;;0.50;;
73515;SDS011;61763;51.416;5.442;2023-02-19T16:18:50;1.30;;;0.90;;
73515;SDS011;61763;51.416;5.442;2023-02-19T16:21:22;3.53;;;0.40;;
73515;SDS011;61763;51.416;5.442;2023-02-19T16:23:52;3.83;;;0.77;;
73515;SDS011;61763;51.416;5.442;2023-02-19T16:26:25;3.38;;;0.63;;
73515;SDS011;61763;51.416;5.442;2023-02-19T16:28:52;3.13;;;0.40;;
73515;SDS011;61763;51.416;5.442;2023-02-19T16:31:19;2.15;;;0.70;;
73515;SDS011;61763;51.416;5.442;2023-02-19T16:33:46;1.60;;;0.73;;
73515;SDS011;61763;51.416;5.442;2023-02-19T16:36:24;2.95;;;0.40;;
73515;SDS011;61763;51.416;5.442;2023-02-19T16:46:45;1.73;;;0.60;;
73515;SDS011;61763;51.416;5.442;2023-02-19T16:49:11;1.50;;;0.63;;
73515;SDS011;61763;51.416;5.442;2023-02-19T16:51:37;1.70;;;0.50;;
73515;SDS011;61763;51.416;5.442;2023-02-19T16:54:02;2.60;;;0.60;;
73515;SDS011;61763;51.416;5.442;2023-02-19T16:56:29;1.55;;;0.80;;
73515;SDS011;61763;51.416;5.442;2023-02-19T16:58:55;1.77;;;0.65;;
73515;SDS011;61763;51.416;5.442;2023-02-19T17:01:20;1.63;;;0.80;;
73515;SDS011;61763;51.416;5.442;2023-02-19T17:03:46;1.60;;;0.45;;
73515;SDS011;61763;51.416;5.442;2023-02-19T17:06:11;1.27;;;0.45;;
73515;SDS011;61763;51.416;5.442;2023-02-19T17:08:42;2.13;;;1.10;;
73515;SDS011;61763;51.416;5.442;2023-02-19T17:11:10;1.42;;;0.75;;
73515;SDS011;61763;51.416;5.442;2023-02-19T17:13:38;2.35;;;0.30;;
73515;SDS011;61763;51.416;5.442;2023-02-19T17:16:06;2.40;;;0.63;;
73515;SDS011;61763;51.416;5.442;2023-02-19T17:18:34;1.35;;;0.60;;
73515;SDS011;61763;51.416;5.442;2023-02-19T17:23:29;1.90;;;0.20;;
73515;SDS011;61763;51.416;5.442;2023-02-19T17:25:56;0.90;;;0.60;;
73515;SDS011;61763;51.416;5.442;2023-02-19T17:28:21;3.53;;;0.52;;
73515;SDS011;61763;51.416;5.442;2023-02-19T17:30:48;2.78;;;0.30;;
73515;SDS011;61763;51.416;5.442;2023-02-19T17:33:14;2.60;;;0.60;;
73515;SDS011;61763;51.416;5.442;2023-02-19T17:35:40;1.40;;;0.45;;
73515;SDS011;61763;51.416;5.442;2023-02-19T17:38:08;2.40;;;0.65;;
73515;SDS011;61763;51.416;5.442;2023-02-19T17:43:00;1.30;;;0.25;;
73515;SDS011;61763;51.416;5.442;2023-02-19T17:45:28;2.15;;;0.20;;
73515;SDS011;61763;51.416;5.442;2023-02-19T17:47:54;2.17;;;0.98;;
73515;SDS011;61763;51.416;5.442;2023-02-19T17:50:20;2.25;;;0.77;;
73515;SDS011;61763;51.416;5.442;2023-02-19T17:52:49;2.08;;;0.20;;
73515;SDS011;61763;51.416;5.442;2023-02-19T17:55:15;1.45;;;0.70;;
73515;SDS011;61763;51.416;5.442;2023-02-19T17:57:47;3.13;;;0.20;;
73515;SDS011;61763;51.416;5.442;2023-02-19T18:00:15;6.47;;;0.95;;
73515;SDS011;61763;51.416;5.442;2023-02-19T18:02:42;2.20;;;0.25;;
73515;SDS011;61763;51.416;5.442;2023-02-19T18:05:08;1.45;;;0.60;;
73515;SDS011;61763;51.416;5.442;2023-02-19T18:07:33;1.45;;;0.77;;
73515;SDS011;61763;51.416;5.442;2023-02-19T18:10:00;1.15;;;0.40;;
73515;SDS011;61763;51.416;5.442;2023-02-19T18:12:26;1.45;;;0.30;;